sensor_id;sensor_type;location;lat;lon;timestamp;temperature;humidity
1716;DHT22;855;48.824;9.220;2023-07-24T00:00:10;20.20;92.50
1716;DHT22;855;48.824;9.220;2023-07-24T00:02:37;19.80;93.00
1716;DHT22;855;48.824;9.220;2023-07-24T00:05:04;19.90;91.70
1716;DHT22;855;48.824;9.220;2023-07-24T00:14:53;19.80;92.80
1716;DHT22;855;48.824;9.220;2023-07-24T00:17:21;20.00;92.00
1716;DHT22;855;48.824;9.220;2023-07-24T00:19:48;20.10;91.90
1716;DHT22;855;48.824;9.220;2023-07-24T00:22:15;20.20;91.90
1716;DHT22;855;48.824;9.220;2023-07-24T00:24:42;20.20;91.20
1716;DHT22;855;48.824;9.220;2023-07-24T00:32:03;20.00;91.20
1716;DHT22;855;48.824;9.220;2023-07-24T00:34:31;20.00;90.80
1716;DHT22;855;48.824;9.220;2023-07-24T00:41:54;20.00;91.90
1716;DHT22;855;48.824;9.220;2023-07-24T00:44:21;19.90;92.50
1716;DHT22;855;48.824;9.220;2023-07-24T00:46:47;19.90;93.00
1716;DHT22;855;48.824;9.220;2023-07-24T00:51:43;19.90;93.40
1716;DHT22;855;48.824;9.220;2023-07-24T00:54:11;20.00;92.70
1716;DHT22;855;48.824;9.220;2023-07-24T00:56:40;20.00;92.70
1716;DHT22;855;48.824;9.220;2023-07-24T00:59:07;20.20;92.30
1716;DHT22;855;48.824;9.220;2023-07-24T01:01:34;20.20;91.90
1716;DHT22;855;48.824;9.220;2023-07-24T01:04:02;20.20;91.90
1716;DHT22;855;48.824;9.220;2023-07-24T01:06:29;20.20;91.90
1716;DHT22;855;48.824;9.220;2023-07-24T01:08:57;20.20;92.00
1716;DHT22;855;48.824;9.220;2023-07-24T01:11:26;20.10;92.40
1716;DHT22;855;48.824;9.220;2023-07-24T01:13:57;20.00;92.20
1716;DHT22;855;48.824;9.220;2023-07-24T01:16:31;20.00;92.20
1716;DHT22;855;48.824;9.220;2023-07-24T01:18:59;20.00;91.50
1716;DHT22;855;48.824;9.220;2023-07-24T01:21:33;20.00;91.50
1716;DHT22;855;48.824;9.220;2023-07-24T01:24:14;20.00;91.30
1716;DHT22;855;48.824;9.220;2023-07-24T01:26:48;20.00;91.30
1716;DHT22;855;48.824;9.220;2023-07-24T01:31:41;20.10;91.20
1716;DHT22;855;48.824;9.220;2023-07-24T01:34:08;19.80;91.40
1716;DHT22;855;48.824;9.220;2023-07-24T01:36:35;19.70;91.80
1716;DHT22;855;48.824;9.220;2023-07-24T01:39:02;19.70;91.80
1716;DHT22;855;48.824;9.220;2023-07-24T01:41:29;19.60;92.40
1716;DHT22;855;48.824;9.220;2023-07-24T01:44:00;19.70;92.40
1716;DHT22;855;48.824;9.220;2023-07-24T01:46:27;19.70;92.40
1716;DHT22;855;48.824;9.220;2023-07-24T01:48:54;19.70;92.30
1716;DHT22;855;48.824;9.220;2023-07-24T01:53:47;19.80;92.20
1716;DHT22;855;48.824;9.220;2023-07-24T01:56:14;19.90;92.10
1716;DHT22;855;48.824;9.220;2023-07-24T02:01:10;20.00;92.20
1716;DHT22;855;48.824;9.220;2023-07-24T02:06:04;19.90;92.20
1716;DHT22;855;48.824;9.220;2023-07-24T02:10:59;20.10;92.00
1716;DHT22;855;48.824;9.220;2023-07-24T02:15:53;20.10;91.50
1716;DHT22;855;48.824;9.220;2023-07-24T02:18:21;20.10;91.40
1716;DHT22;855;48.824;9.220;2023-07-24T02:20:51;20.10;91.30
1716;DHT22;855;48.824;9.220;2023-07-24T02:23:17;20.10;90.80
1716;DHT22;855;48.824;9.220;2023-07-24T02:25:44;20.10;90.60
1716;DHT22;855;48.824;9.220;2023-07-24T02:30:39;20.20;90.40
1716;DHT22;855;48.824;9.220;2023-07-24T02:33:05;20.10;91.10
1716;DHT22;855;48.824;9.220;2023-07-24T02:35:39;20.10;91.10
1716;DHT22;855;48.824;9.220;2023-07-24T02:40:33;20.10;91.40
1716;DHT22;855;48.824;9.220;2023-07-24T02:43:00;20.00;90.90
1716;DHT22;855;48.824;9.220;2023-07-24T02:47:54;19.80;89.30
1716;DHT22;855;48.824;9.220;2023-07-24T02:50:21;19.80;89.10
1716;DHT22;855;48.824;9.220;2023-07-24T02:52:49;19.80;89.40
1716;DHT22;855;48.824;9.220;2023-07-24T02:55:16;19.90;89.10
1716;DHT22;855;48.824;9.220;2023-07-24T02:57:43;19.90;89.10
1716;DHT22;855;48.824;9.220;2023-07-24T03:00:10;20.00;88.30
1716;DHT22;855;48.824;9.220;2023-07-24T03:02:37;20.00;88.30
1716;DHT22;855;48.824;9.220;2023-07-24T03:05:05;19.90;90.10
1716;DHT22;855;48.824;9.220;2023-07-24T03:10:00;19.90;91.40
1716;DHT22;855;48.824;9.220;2023-07-24T03:12:27;19.80;91.50
1716;DHT22;855;48.824;9.220;2023-07-24T03:14:54;19.80;91.50
1716;DHT22;855;48.824;9.220;2023-07-24T03:17:22;19.90;91.50
1716;DHT22;855;48.824;9.220;2023-07-24T03:19:49;19.90;91.30
1716;DHT22;855;48.824;9.220;2023-07-24T03:22:16;19.90;90.90
1716;DHT22;855;48.824;9.220;2023-07-24T03:27:11;19.90;90.50
1716;DHT22;855;48.824;9.220;2023-07-24T03:32:07;20.00;90.30
1716;DHT22;855;48.824;9.220;2023-07-24T03:34:33;19.90;90.90
1716;DHT22;855;48.824;9.220;2023-07-24T03:39:27;19.70;91.50
1716;DHT22;855;48.824;9.220;2023-07-24T03:41:54;19.70;91.50
1716;DHT22;855;48.824;9.220;2023-07-24T03:44:22;19.70;91.20
1716;DHT22;855;48.824;9.220;2023-07-24T03:46:49;19.70;91.20
1716;DHT22;855;48.824;9.220;2023-07-24T03:51:43;19.80;90.90
1716;DHT22;855;48.824;9.220;2023-07-24T03:54:09;19.70;91.40
1716;DHT22;855;48.824;9.220;2023-07-24T03:56:36;19.70;91.40
1716;DHT22;855;48.824;9.220;2023-07-24T03:59:03;19.80;91.20
1716;DHT22;855;48.824;9.220;2023-07-24T04:01:31;19.80;91.00
1716;DHT22;855;48.824;9.220;2023-07-24T04:03:59;19.80;91.00
1716;DHT22;855;48.824;9.220;2023-07-24T04:08:53;19.90;91.00
1716;DHT22;855;48.824;9.220;2023-07-24T04:11:19;19.80;91.00
1716;DHT22;855;48.824;9.220;2023-07-24T04:13:46;19.80;91.10
1716;DHT22;855;48.824;9.220;2023-07-24T04:16:13;19.70;91.30
1716;DHT22;855;48.824;9.220;2023-07-24T04:18:41;19.80;91.30
1716;DHT22;855;48.824;9.220;2023-07-24T04:23:35;19.80;91.60
1716;DHT22;855;48.824;9.220;2023-07-24T04:28:29;19.90;91.90
1716;DHT22;855;48.824;9.220;2023-07-24T04:30:59;19.90;91.90
1716;DHT22;855;48.824;9.220;2023-07-24T04:35:55;20.10;91.30
1716;DHT22;855;48.824;9.220;2023-07-24T04:38:22;20.20;91.30
1716;DHT22;855;48.824;9.220;2023-07-24T04:40:48;20.20;91.30
1716;DHT22;855;48.824;9.220;2023-07-24T04:43:15;20.20;91.00
1716;DHT22;855;48.824;9.220;2023-07-24T04:45:42;20.20;91.60
1716;DHT22;855;48.824;9.220;2023-07-24T04:48:09;20.30;91.70
1716;DHT22;855;48.824;9.220;2023-07-24T04:50:36;20.40;91.60
1716;DHT22;855;48.824;9.220;2023-07-24T04:53:04;20.40;91.10
1716;DHT22;855;48.824;9.220;2023-07-24T04:55:30;20.40;91.10
1716;DHT22;855;48.824;9.220;2023-07-24T04:57:57;20.50;90.80
1716;DHT22;855;48.824;9.220;2023-07-24T05:02:52;20.70;90.20
1716;DHT22;855;48.824;9.220;2023-07-24T05:05:18;20.80;89.80
1716;DHT22;855;48.824;9.220;2023-07-24T05:07:45;20.80;89.80
1716;DHT22;855;48.824;9.220;2023-07-24T05:10:14;20.90;90.10
1716;DHT22;855;48.824;9.220;2023-07-24T05:12:41;21.00;90.10
1716;DHT22;855;48.824;9.220;2023-07-24T05:15:09;21.00;88.60
1716;DHT22;855;48.824;9.220;2023-07-24T05:17:36;21.10;89.30
1716;DHT22;855;48.824;9.220;2023-07-24T05:20:03;21.20;89.90
1716;DHT22;855;48.824;9.220;2023-07-24T05:22:30;21.10;85.60
1716;DHT22;855;48.824;9.220;2023-07-24T05:24:57;21.10;85.60
1716;DHT22;855;48.824;9.220;2023-07-24T05:27:25;21.20;82.00
1716;DHT22;855;48.824;9.220;2023-07-24T05:29:52;21.30;83.70
1716;DHT22;855;48.824;9.220;2023-07-24T05:32:18;21.30;81.70
1716;DHT22;855;48.824;9.220;2023-07-24T05:34:45;21.40;82.00
1716;DHT22;855;48.824;9.220;2023-07-24T05:37:12;21.50;82.10
1716;DHT22;855;48.824;9.220;2023-07-24T05:39:39;21.50;81.60
1716;DHT22;855;48.824;9.220;2023-07-24T05:42:06;21.60;81.60
1716;DHT22;855;48.824;9.220;2023-07-24T05:44:34;21.60;80.40
1716;DHT22;855;48.824;9.220;2023-07-24T05:47:03;21.50;79.70
1716;DHT22;855;48.824;9.220;2023-07-24T05:49:30;21.50;79.70
1716;DHT22;855;48.824;9.220;2023-07-24T05:51:56;21.50;80.00
1716;DHT22;855;48.824;9.220;2023-07-24T05:54:23;21.50;79.70
1716;DHT22;855;48.824;9.220;2023-07-24T05:56:52;21.50;79.90
1716;DHT22;855;48.824;9.220;2023-07-24T05:59:18;21.50;79.90
1716;DHT22;855;48.824;9.220;2023-07-24T06:01:47;21.50;79.30
1716;DHT22;855;48.824;9.220;2023-07-24T06:06:41;21.60;78.70
1716;DHT22;855;48.824;9.220;2023-07-24T06:09:07;21.70;78.40
1716;DHT22;855;48.824;9.220;2023-07-24T06:11:34;21.70;78.80
1716;DHT22;855;48.824;9.220;2023-07-24T06:16:28;21.70;77.60
1716;DHT22;855;48.824;9.220;2023-07-24T06:18:56;21.70;78.20
1716;DHT22;855;48.824;9.220;2023-07-24T06:21:23;21.70;78.30
1716;DHT22;855;48.824;9.220;2023-07-24T06:23:50;21.90;77.60
1716;DHT22;855;48.824;9.220;2023-07-24T06:26:16;21.80;76.30
1716;DHT22;855;48.824;9.220;2023-07-24T06:28:43;21.80;76.30
1716;DHT22;855;48.824;9.220;2023-07-24T06:31:10;21.80;76.00
1716;DHT22;855;48.824;9.220;2023-07-24T06:33:37;21.70;76.00
1716;DHT22;855;48.824;9.220;2023-07-24T06:36:08;21.80;76.70
1716;DHT22;855;48.824;9.220;2023-07-24T06:38:35;21.80;77.10
1716;DHT22;855;48.824;9.220;2023-07-24T06:43:29;21.90;76.60
1716;DHT22;855;48.824;9.220;2023-07-24T06:45:56;21.90;76.70
1716;DHT22;855;48.824;9.220;2023-07-24T06:48:23;21.90;75.60
1716;DHT22;855;48.824;9.220;2023-07-24T06:53:18;22.00;75.80
1716;DHT22;855;48.824;9.220;2023-07-24T06:55:45;22.20;75.40
1716;DHT22;855;48.824;9.220;2023-07-24T06:58:12;22.50;74.60
1716;DHT22;855;48.824;9.220;2023-07-24T07:00:39;22.50;75.50
1716;DHT22;855;48.824;9.220;2023-07-24T07:03:05;22.50;75.50
1716;DHT22;855;48.824;9.220;2023-07-24T07:05:32;22.60;74.30
1716;DHT22;855;48.824;9.220;2023-07-24T07:07:59;22.70;73.80
1716;DHT22;855;48.824;9.220;2023-07-24T07:10:27;22.70;73.70
1716;DHT22;855;48.824;9.220;2023-07-24T07:12:54;22.90;74.30
1716;DHT22;855;48.824;9.220;2023-07-24T07:15:21;23.00;74.10
1716;DHT22;855;48.824;9.220;2023-07-24T07:17:48;23.00;73.80
1716;DHT22;855;48.824;9.220;2023-07-24T07:20:14;23.00;72.70
1716;DHT22;855;48.824;9.220;2023-07-24T07:22:41;23.00;72.90
1716;DHT22;855;48.824;9.220;2023-07-24T07:25:08;23.10;72.30
1716;DHT22;855;48.824;9.220;2023-07-24T07:27:37;23.10;72.20
1716;DHT22;855;48.824;9.220;2023-07-24T07:30:05;23.20;71.00
1716;DHT22;855;48.824;9.220;2023-07-24T07:32:32;23.10;72.10
1716;DHT22;855;48.824;9.220;2023-07-24T07:37:26;23.00;72.30
1716;DHT22;855;48.824;9.220;2023-07-24T07:39:52;23.00;71.70
1716;DHT22;855;48.824;9.220;2023-07-24T07:42:19;22.90;71.80
1716;DHT22;855;48.824;9.220;2023-07-24T07:44:47;23.00;72.10
1716;DHT22;855;48.824;9.220;2023-07-24T07:47:14;23.00;72.10
1716;DHT22;855;48.824;9.220;2023-07-24T07:49:41;23.00;71.80
1716;DHT22;855;48.824;9.220;2023-07-24T07:52:08;23.10;72.30
1716;DHT22;855;48.824;9.220;2023-07-24T07:54:35;23.10;71.40
1716;DHT22;855;48.824;9.220;2023-07-24T07:57:02;23.20;72.50
1716;DHT22;855;48.824;9.220;2023-07-24T07:59:30;23.30;72.20
1716;DHT22;855;48.824;9.220;2023-07-24T08:01:58;23.50;71.70
1716;DHT22;855;48.824;9.220;2023-07-24T08:04:25;23.60;71.90
1716;DHT22;855;48.824;9.220;2023-07-24T08:06:55;23.50;71.90
1716;DHT22;855;48.824;9.220;2023-07-24T08:09:22;23.70;72.30
1716;DHT22;855;48.824;9.220;2023-07-24T08:11:49;23.80;73.40
1716;DHT22;855;48.824;9.220;2023-07-24T08:14:16;23.80;74.90
1716;DHT22;855;48.824;9.220;2023-07-24T08:16:44;23.90;75.80
1716;DHT22;855;48.824;9.220;2023-07-24T08:19:13;23.90;75.90
1716;DHT22;855;48.824;9.220;2023-07-24T08:21:40;23.90;76.30
1716;DHT22;855;48.824;9.220;2023-07-24T08:24:07;23.80;76.80
1716;DHT22;855;48.824;9.220;2023-07-24T08:26:34;23.80;76.80
1716;DHT22;855;48.824;9.220;2023-07-24T08:29:00;23.80;78.70
1716;DHT22;855;48.824;9.220;2023-07-24T08:31:29;23.80;78.70
1716;DHT22;855;48.824;9.220;2023-07-24T08:33:55;23.70;81.30
1716;DHT22;855;48.824;9.220;2023-07-24T08:36:24;23.60;82.90
1716;DHT22;855;48.824;9.220;2023-07-24T08:38:50;23.50;84.00
1716;DHT22;855;48.824;9.220;2023-07-24T08:41:17;23.50;84.00
1716;DHT22;855;48.824;9.220;2023-07-24T08:43:44;23.10;86.20
1716;DHT22;855;48.824;9.220;2023-07-24T08:48:40;23.00;87.50
1716;DHT22;855;48.824;9.220;2023-07-24T08:51:08;22.90;86.60
1716;DHT22;855;48.824;9.220;2023-07-24T08:53:38;23.00;87.80
1716;DHT22;855;48.824;9.220;2023-07-24T08:56:06;23.00;89.50
1716;DHT22;855;48.824;9.220;2023-07-24T08:58:33;23.00;89.50
1716;DHT22;855;48.824;9.220;2023-07-24T09:01:01;23.00;89.10
1716;DHT22;855;48.824;9.220;2023-07-24T09:03:28;22.80;88.10
1716;DHT22;855;48.824;9.220;2023-07-24T09:05:56;22.80;87.90
1716;DHT22;855;48.824;9.220;2023-07-24T09:08:30;22.80;87.50
1716;DHT22;855;48.824;9.220;2023-07-24T09:10:59;22.90;87.80
1716;DHT22;855;48.824;9.220;2023-07-24T09:13:26;23.10;88.30
1716;DHT22;855;48.824;9.220;2023-07-24T09:15:52;23.10;88.30
1716;DHT22;855;48.824;9.220;2023-07-24T09:18:21;23.40;88.10
1716;DHT22;855;48.824;9.220;2023-07-24T09:20:48;23.60;87.70
1716;DHT22;855;48.824;9.220;2023-07-24T09:23:15;23.60;87.80
1716;DHT22;855;48.824;9.220;2023-07-24T09:25:44;23.80;83.60
1716;DHT22;855;48.824;9.220;2023-07-24T09:28:13;24.00;82.90
1716;DHT22;855;48.824;9.220;2023-07-24T09:30:40;24.20;83.80
1716;DHT22;855;48.824;9.220;2023-07-24T09:33:07;24.20;83.80
1716;DHT22;855;48.824;9.220;2023-07-24T09:35:34;24.40;82.10
1716;DHT22;855;48.824;9.220;2023-07-24T09:38:03;24.50;82.50
1716;DHT22;855;48.824;9.220;2023-07-24T09:40:38;24.50;82.40
1716;DHT22;855;48.824;9.220;2023-07-24T09:43:16;24.30;80.40
1716;DHT22;855;48.824;9.220;2023-07-24T09:45:44;24.10;81.30
1716;DHT22;855;48.824;9.220;2023-07-24T09:48:12;24.10;81.90
1716;DHT22;855;48.824;9.220;2023-07-24T09:50:42;23.80;82.40
1716;DHT22;855;48.824;9.220;2023-07-24T09:53:13;23.60;82.40
1716;DHT22;855;48.824;9.220;2023-07-24T09:55:46;23.60;82.70
1716;DHT22;855;48.824;9.220;2023-07-24T09:58:15;23.50;82.90
1716;DHT22;855;48.824;9.220;2023-07-24T10:00:44;23.40;83.60
1716;DHT22;855;48.824;9.220;2023-07-24T10:03:12;23.50;83.70
1716;DHT22;855;48.824;9.220;2023-07-24T10:05:39;23.60;83.00
1716;DHT22;855;48.824;9.220;2023-07-24T10:08:07;23.80;83.30
1716;DHT22;855;48.824;9.220;2023-07-24T10:10:34;23.90;82.80
1716;DHT22;855;48.824;9.220;2023-07-24T10:13:02;24.00;82.50
1716;DHT22;855;48.824;9.220;2023-07-24T10:15:31;24.00;82.50
1716;DHT22;855;48.824;9.220;2023-07-24T10:18:02;24.00;83.20
1716;DHT22;855;48.824;9.220;2023-07-24T10:20:33;24.00;82.50
1716;DHT22;855;48.824;9.220;2023-07-24T10:23:01;23.90;82.40
1716;DHT22;855;48.824;9.220;2023-07-24T10:25:29;23.90;82.80
1716;DHT22;855;48.824;9.220;2023-07-24T10:28:02;23.90;83.20
1716;DHT22;855;48.824;9.220;2023-07-24T10:30:33;23.90;84.10
1716;DHT22;855;48.824;9.220;2023-07-24T10:33:08;23.90;84.10
1716;DHT22;855;48.824;9.220;2023-07-24T10:35:39;23.80;84.80
1716;DHT22;855;48.824;9.220;2023-07-24T10:38:06;23.80;84.80
1716;DHT22;855;48.824;9.220;2023-07-24T10:40:33;23.90;84.50
1716;DHT22;855;48.824;9.220;2023-07-24T10:43:04;23.90;84.50
1716;DHT22;855;48.824;9.220;2023-07-24T10:45:45;23.90;84.50
1716;DHT22;855;48.824;9.220;2023-07-24T10:48:12;23.80;85.30
1716;DHT22;855;48.824;9.220;2023-07-24T10:50:40;23.80;85.60
1716;DHT22;855;48.824;9.220;2023-07-24T10:53:08;23.80;85.60
1716;DHT22;855;48.824;9.220;2023-07-24T10:55:35;23.70;85.70
1716;DHT22;855;48.824;9.220;2023-07-24T10:58:02;23.60;86.60
1716;DHT22;855;48.824;9.220;2023-07-24T11:00:28;23.50;86.90
1716;DHT22;855;48.824;9.220;2023-07-24T11:02:57;23.50;87.30
1716;DHT22;855;48.824;9.220;2023-07-24T11:05:24;23.50;87.30
1716;DHT22;855;48.824;9.220;2023-07-24T11:07:51;23.50;87.30
1716;DHT22;855;48.824;9.220;2023-07-24T11:10:18;23.30;89.10
1716;DHT22;855;48.824;9.220;2023-07-24T11:12:45;22.90;90.70
1716;DHT22;855;48.824;9.220;2023-07-24T11:15:13;22.60;91.20
1716;DHT22;855;48.824;9.220;2023-07-24T11:17:41;22.40;91.40
1716;DHT22;855;48.824;9.220;2023-07-24T11:20:11;22.40;91.40
1716;DHT22;855;48.824;9.220;2023-07-24T11:22:39;22.00;91.60
1716;DHT22;855;48.824;9.220;2023-07-24T11:25:07;22.00;92.50
1716;DHT22;855;48.824;9.220;2023-07-24T11:27:38;21.90;92.20
1716;DHT22;855;48.824;9.220;2023-07-24T11:30:07;21.80;91.90
1716;DHT22;855;48.824;9.220;2023-07-24T11:32:34;21.90;92.20
1716;DHT22;855;48.824;9.220;2023-07-24T11:35:01;21.80;92.50
1716;DHT22;855;48.824;9.220;2023-07-24T11:37:30;21.60;92.30
1716;DHT22;855;48.824;9.220;2023-07-24T11:39:58;21.50;92.80
1716;DHT22;855;48.824;9.220;2023-07-24T11:42:30;21.60;93.50
1716;DHT22;855;48.824;9.220;2023-07-24T11:45:00;21.90;94.40
1716;DHT22;855;48.824;9.220;2023-07-24T11:47:28;22.10;94.10
1716;DHT22;855;48.824;9.220;2023-07-24T11:49:57;22.40;93.70
1716;DHT22;855;48.824;9.220;2023-07-24T11:52:24;22.50;93.90
1716;DHT22;855;48.824;9.220;2023-07-24T11:54:58;22.80;92.60
1716;DHT22;855;48.824;9.220;2023-07-24T11:57:27;23.20;90.90
1716;DHT22;855;48.824;9.220;2023-07-24T11:59:55;23.20;90.90
1716;DHT22;855;48.824;9.220;2023-07-24T12:02:25;23.30;88.20
1716;DHT22;855;48.824;9.220;2023-07-24T12:04:56;23.30;88.20
1716;DHT22;855;48.824;9.220;2023-07-24T12:07:29;23.30;88.70
1716;DHT22;855;48.824;9.220;2023-07-24T12:09:58;23.00;87.10
1716;DHT22;855;48.824;9.220;2023-07-24T12:12:25;23.00;87.80
1716;DHT22;855;48.824;9.220;2023-07-24T12:14:52;22.90;87.70
1716;DHT22;855;48.824;9.220;2023-07-24T12:17:19;22.90;87.70
1716;DHT22;855;48.824;9.220;2023-07-24T12:19:46;23.00;88.20
1716;DHT22;855;48.824;9.220;2023-07-24T12:22:14;23.10;88.50
1716;DHT22;855;48.824;9.220;2023-07-24T12:24:41;23.00;87.50
1716;DHT22;855;48.824;9.220;2023-07-24T12:27:09;23.00;87.50
1716;DHT22;855;48.824;9.220;2023-07-24T12:29:36;22.90;88.10
1716;DHT22;855;48.824;9.220;2023-07-24T12:32:03;22.90;88.10
1716;DHT22;855;48.824;9.220;2023-07-24T12:34:29;22.90;87.90
1716;DHT22;855;48.824;9.220;2023-07-24T12:36:56;23.10;88.70
1716;DHT22;855;48.824;9.220;2023-07-24T12:39:23;23.20;88.60
1716;DHT22;855;48.824;9.220;2023-07-24T12:41:50;23.20;88.60
1716;DHT22;855;48.824;9.220;2023-07-24T12:44:18;23.20;84.90
1716;DHT22;855;48.824;9.220;2023-07-24T12:46:45;23.20;84.90
1716;DHT22;855;48.824;9.220;2023-07-24T12:49:12;23.20;85.20
1716;DHT22;855;48.824;9.220;2023-07-24T12:51:38;23.30;84.60
1716;DHT22;855;48.824;9.220;2023-07-24T12:54:05;23.30;84.20
1716;DHT22;855;48.824;9.220;2023-07-24T12:56:32;23.50;86.40
1716;DHT22;855;48.824;9.220;2023-07-24T13:01:27;23.60;85.70
1716;DHT22;855;48.824;9.220;2023-07-24T13:03:54;23.60;85.70
1716;DHT22;855;48.824;9.220;2023-07-24T13:06:21;23.70;85.40
1716;DHT22;855;48.824;9.220;2023-07-24T13:08:48;23.80;86.90
1716;DHT22;855;48.824;9.220;2023-07-24T13:11:15;23.80;85.80
1716;DHT22;855;48.824;9.220;2023-07-24T13:13:42;24.00;84.90
1716;DHT22;855;48.824;9.220;2023-07-24T13:16:09;24.00;84.60
1716;DHT22;855;48.824;9.220;2023-07-24T13:18:37;24.20;82.80
1716;DHT22;855;48.824;9.220;2023-07-24T13:21:04;24.30;82.30
1716;DHT22;855;48.824;9.220;2023-07-24T13:23:33;24.30;82.00
1716;DHT22;855;48.824;9.220;2023-07-24T13:26:00;24.40;82.40
1716;DHT22;855;48.824;9.220;2023-07-24T13:28:27;24.40;82.50
1716;DHT22;855;48.824;9.220;2023-07-24T13:30:54;24.50;83.20
1716;DHT22;855;48.824;9.220;2023-07-24T13:33:21;24.70;83.20
1716;DHT22;855;48.824;9.220;2023-07-24T13:35:50;24.70;82.50
1716;DHT22;855;48.824;9.220;2023-07-24T13:38:17;24.80;81.10
1716;DHT22;855;48.824;9.220;2023-07-24T13:40:43;24.80;81.70
1716;DHT22;855;48.824;9.220;2023-07-24T13:43:10;24.80;81.60
1716;DHT22;855;48.824;9.220;2023-07-24T13:45:37;24.80;81.20
1716;DHT22;855;48.824;9.220;2023-07-24T13:48:04;24.70;81.20
1716;DHT22;855;48.824;9.220;2023-07-24T13:50:31;24.60;81.30
1716;DHT22;855;48.824;9.220;2023-07-24T13:53:00;24.60;81.20
1716;DHT22;855;48.824;9.220;2023-07-24T13:55:26;24.80;79.60
1716;DHT22;855;48.824;9.220;2023-07-24T13:57:53;25.00;79.70
1716;DHT22;855;48.824;9.220;2023-07-24T14:00:20;25.10;79.50
1716;DHT22;855;48.824;9.220;2023-07-24T14:02:47;25.70;77.20
1716;DHT22;855;48.824;9.220;2023-07-24T14:05:15;26.10;78.20
1716;DHT22;855;48.824;9.220;2023-07-24T14:07:42;26.20;73.50
1716;DHT22;855;48.824;9.220;2023-07-24T14:10:11;26.40;72.60
1716;DHT22;855;48.824;9.220;2023-07-24T14:12:38;26.40;72.10
1716;DHT22;855;48.824;9.220;2023-07-24T14:15:05;26.30;69.40
1716;DHT22;855;48.824;9.220;2023-07-24T14:17:32;26.30;70.20
1716;DHT22;855;48.824;9.220;2023-07-24T14:20:00;26.30;69.60
1716;DHT22;855;48.824;9.220;2023-07-24T14:22:27;26.20;67.30
1716;DHT22;855;48.824;9.220;2023-07-24T14:24:54;26.10;67.20
1716;DHT22;855;48.824;9.220;2023-07-24T14:27:22;26.10;67.90
1716;DHT22;855;48.824;9.220;2023-07-24T14:29:49;26.20;67.20
1716;DHT22;855;48.824;9.220;2023-07-24T14:32:16;26.20;68.20
1716;DHT22;855;48.824;9.220;2023-07-24T14:34:43;26.10;68.00
1716;DHT22;855;48.824;9.220;2023-07-24T14:37:09;26.10;68.10
1716;DHT22;855;48.824;9.220;2023-07-24T14:39:36;26.00;67.90
1716;DHT22;855;48.824;9.220;2023-07-24T14:42:04;26.00;68.00
1716;DHT22;855;48.824;9.220;2023-07-24T14:44:32;26.20;66.80
1716;DHT22;855;48.824;9.220;2023-07-24T14:46:59;26.50;68.60
1716;DHT22;855;48.824;9.220;2023-07-24T14:49:26;26.60;68.80
1716;DHT22;855;48.824;9.220;2023-07-24T14:51:52;26.80;64.70
1716;DHT22;855;48.824;9.220;2023-07-24T14:54:19;26.70;65.20
1716;DHT22;855;48.824;9.220;2023-07-24T14:56:46;26.80;65.30
1716;DHT22;855;48.824;9.220;2023-07-24T14:59:13;26.80;65.60
1716;DHT22;855;48.824;9.220;2023-07-24T15:01:41;26.80;64.30
1716;DHT22;855;48.824;9.220;2023-07-24T15:04:08;26.70;64.40
1716;DHT22;855;48.824;9.220;2023-07-24T15:06:35;26.60;65.90
1716;DHT22;855;48.824;9.220;2023-07-24T15:09:02;26.80;64.80
1716;DHT22;855;48.824;9.220;2023-07-24T15:11:29;27.00;62.70
1716;DHT22;855;48.824;9.220;2023-07-24T15:13:56;27.20;62.30
1716;DHT22;855;48.824;9.220;2023-07-24T15:16:23;27.30;63.80
1716;DHT22;855;48.824;9.220;2023-07-24T15:18:51;27.40;62.20
1716;DHT22;855;48.824;9.220;2023-07-24T15:21:18;27.50;61.10
1716;DHT22;855;48.824;9.220;2023-07-24T15:23:44;27.40;61.60
1716;DHT22;855;48.824;9.220;2023-07-24T15:26:17;27.40;62.60
1716;DHT22;855;48.824;9.220;2023-07-24T15:28:44;27.00;63.20
1716;DHT22;855;48.824;9.220;2023-07-24T15:33:38;26.70;64.80
1716;DHT22;855;48.824;9.220;2023-07-24T15:36:06;26.70;64.80
1716;DHT22;855;48.824;9.220;2023-07-24T15:38:33;26.30;65.90
1716;DHT22;855;48.824;9.220;2023-07-24T15:40:59;26.10;66.90
1716;DHT22;855;48.824;9.220;2023-07-24T15:43:26;26.00;67.90
1716;DHT22;855;48.824;9.220;2023-07-24T15:45:53;25.90;68.40
1716;DHT22;855;48.824;9.220;2023-07-24T15:48:20;25.80;68.90
1716;DHT22;855;48.824;9.220;2023-07-24T15:50:47;25.70;68.80
1716;DHT22;855;48.824;9.220;2023-07-24T15:53:15;25.60;68.90
1716;DHT22;855;48.824;9.220;2023-07-24T15:55:42;25.40;70.20
1716;DHT22;855;48.824;9.220;2023-07-24T15:58:09;25.50;70.10
1716;DHT22;855;48.824;9.220;2023-07-24T16:00:36;25.60;71.00
1716;DHT22;855;48.824;9.220;2023-07-24T16:03:03;25.70;70.80
1716;DHT22;855;48.824;9.220;2023-07-24T16:05:29;25.70;69.80
1716;DHT22;855;48.824;9.220;2023-07-24T16:07:56;25.80;70.90
1716;DHT22;855;48.824;9.220;2023-07-24T16:10:24;25.80;70.90
1716;DHT22;855;48.824;9.220;2023-07-24T16:12:51;25.90;70.80
1716;DHT22;855;48.824;9.220;2023-07-24T16:15:18;25.90;70.20
1716;DHT22;855;48.824;9.220;2023-07-24T16:17:45;25.80;70.10
1716;DHT22;855;48.824;9.220;2023-07-24T16:20:12;25.50;71.40
1716;DHT22;855;48.824;9.220;2023-07-24T16:22:38;25.50;71.60
1716;DHT22;855;48.824;9.220;2023-07-24T16:25:06;25.60;72.20
1716;DHT22;855;48.824;9.220;2023-07-24T16:27:34;25.40;71.80
1716;DHT22;855;48.824;9.220;2023-07-24T16:30:01;25.20;71.70
1716;DHT22;855;48.824;9.220;2023-07-24T16:32:28;25.10;72.50
1716;DHT22;855;48.824;9.220;2023-07-24T16:34:54;25.20;73.30
1716;DHT22;855;48.824;9.220;2023-07-24T16:37:21;25.30;74.30
1716;DHT22;855;48.824;9.220;2023-07-24T16:39:50;25.30;73.90
1716;DHT22;855;48.824;9.220;2023-07-24T16:42:16;25.10;73.90
1716;DHT22;855;48.824;9.220;2023-07-24T16:44:45;24.90;75.80
1716;DHT22;855;48.824;9.220;2023-07-24T16:47:11;24.50;77.10
1716;DHT22;855;48.824;9.220;2023-07-24T16:49:38;24.50;76.60
1716;DHT22;855;48.824;9.220;2023-07-24T16:52:05;24.40;75.60
1716;DHT22;855;48.824;9.220;2023-07-24T16:54:32;24.10;75.80
1716;DHT22;855;48.824;9.220;2023-07-24T16:57:01;24.10;76.00
1716;DHT22;855;48.824;9.220;2023-07-24T16:59:28;23.40;80.10
1716;DHT22;855;48.824;9.220;2023-07-24T17:01:57;23.30;84.00
1716;DHT22;855;48.824;9.220;2023-07-24T17:04:24;23.20;84.00
1716;DHT22;855;48.824;9.220;2023-07-24T17:06:51;22.80;84.20
1716;DHT22;855;48.824;9.220;2023-07-24T17:09:18;22.70;84.60
1716;DHT22;855;48.824;9.220;2023-07-24T17:11:45;22.40;84.60
1716;DHT22;855;48.824;9.220;2023-07-24T17:14:12;22.40;86.70
1716;DHT22;855;48.824;9.220;2023-07-24T17:19:07;22.40;86.90
1716;DHT22;855;48.824;9.220;2023-07-24T17:21:34;22.20;86.70
1716;DHT22;855;48.824;9.220;2023-07-24T17:24:02;22.00;88.30
1716;DHT22;855;48.824;9.220;2023-07-24T17:26:29;22.00;88.30
1716;DHT22;855;48.824;9.220;2023-07-24T17:36:24;22.10;89.90
1716;DHT22;855;48.824;9.220;2023-07-24T17:38:51;22.10;89.90
1716;DHT22;855;48.824;9.220;2023-07-24T17:41:17;22.10;89.90
1716;DHT22;855;48.824;9.220;2023-07-24T17:46:11;22.10;88.90
1716;DHT22;855;48.824;9.220;2023-07-24T17:51:06;22.20;89.00
1716;DHT22;855;48.824;9.220;2023-07-24T17:53:34;22.30;87.90
1716;DHT22;855;48.824;9.220;2023-07-24T17:56:01;22.30;87.50
1716;DHT22;855;48.824;9.220;2023-07-24T17:58:29;22.40;86.60